sensor_id;sensor_type;location;lat;lon;timestamp;pressure;altitude;pressure_sealevel;temperature
48854;BMP280;34673;52.808;17.856;2023-02-28T00:01:13;101946.34;;;-1.38
48854;BMP280;34673;52.808;17.856;2023-02-28T00:03:41;101936.94;;;-1.52
48854;BMP280;34673;52.808;17.856;2023-02-28T00:06:08;101954.13;;;-1.48
48854;BMP280;34673;52.808;17.856;2023-02-28T00:08:37;101948.38;;;-1.45
48854;BMP280;34673;52.808;17.856;2023-02-28T00:11:12;101956.19;;;-1.42
48854;BMP280;34673;52.808;17.856;2023-02-28T00:13:43;101961.16;;;-1.44
48854;BMP280;34673;52.808;17.856;2023-02-28T00:16:16;101956.09;;;-1.44
48854;BMP280;34673;52.808;17.856;2023-02-28T00:18:43;101949.16;;;-1.46
48854;BMP280;34673;52.808;17.856;2023-02-28T00:21:11;101936.31;;;-1.61
48854;BMP280;34673;52.808;17.856;2023-02-28T00:23:38;101957.91;;;-1.54
48854;BMP280;34673;52.808;17.856;2023-02-28T00:26:05;101959.00;;;-1.51
48854;BMP280;34673;52.808;17.856;2023-02-28T00:28:32;101953.91;;;-1.51
48854;BMP280;34673;52.808;17.856;2023-02-28T00:30:59;101961.63;;;-1.49
48854;BMP280;34673;52.808;17.856;2023-02-28T00:33:28;101957.00;;;-1.55
48854;BMP280;34673;52.808;17.856;2023-02-28T00:36:07;101962.34;;;-1.64
48854;BMP280;34673;52.808;17.856;2023-02-28T00:38:36;101963.63;;;-1.70
48854;BMP280;34673;52.808;17.856;2023-02-28T00:41:03;101962.22;;;-1.79
48854;BMP280;34673;52.808;17.856;2023-02-28T00:43:36;101965.09;;;-1.86
48854;BMP280;34673;52.808;17.856;2023-02-28T00:46:04;101948.09;;;-2.00
48854;BMP280;34673;52.808;17.856;2023-02-28T00:48:32;101963.16;;;-1.90
48854;BMP280;34673;52.808;17.856;2023-02-28T00:50:59;101952.38;;;-1.99
48854;BMP280;34673;52.808;17.856;2023-02-28T00:53:27;101969.00;;;-1.91
48854;BMP280;34673;52.808;17.856;2023-02-28T00:55:56;101965.78;;;-1.88
48854;BMP280;34673;52.808;17.856;2023-02-28T00:58:25;101966.66;;;-1.88
48854;BMP280;34673;52.808;17.856;2023-02-28T01:00:53;101963.16;;;-1.90
48854;BMP280;34673;52.808;17.856;2023-02-28T01:03:21;101958.44;;;-1.97
48854;BMP280;34673;52.808;17.856;2023-02-28T01:05:49;101960.19;;;-1.96
48854;BMP280;34673;52.808;17.856;2023-02-28T01:08:17;101962.72;;;-1.96
48854;BMP280;34673;52.808;17.856;2023-02-28T01:10:44;101960.75;;;-2.00
48854;BMP280;34673;52.808;17.856;2023-02-28T01:13:11;101955.69;;;-2.00
48854;BMP280;34673;52.808;17.856;2023-02-28T01:15:42;101948.63;;;-2.04
48854;BMP280;34673;52.808;17.856;2023-02-28T01:18:11;101954.69;;;-2.02
48854;BMP280;34673;52.808;17.856;2023-02-28T01:20:38;101949.50;;;-2.04
48854;BMP280;34673;52.808;17.856;2023-02-28T01:23:05;101945.13;;;-2.06
48854;BMP280;34673;52.808;17.856;2023-02-28T01:25:36;101950.63;;;-2.00
48854;BMP280;34673;52.808;17.856;2023-02-28T01:28:04;101950.63;;;-2.00
48854;BMP280;34673;52.808;17.856;2023-02-28T01:30:33;101949.97;;;-2.09
48854;BMP280;34673;52.808;17.856;2023-02-28T01:33:00;101945.56;;;-2.12
48854;BMP280;34673;52.808;17.856;2023-02-28T01:35:28;101948.22;;;-2.10
48854;BMP280;34673;52.808;17.856;2023-02-28T01:37:55;101937.28;;;-2.09
48854;BMP280;34673;52.808;17.856;2023-02-28T01:40:30;101945.91;;;-2.07
48854;BMP280;34673;52.808;17.856;2023-02-28T01:42:57;101951.53;;;-2.11
48854;BMP280;34673;52.808;17.856;2023-02-28T01:45:31;101940.97;;;-2.17
48854;BMP280;34673;52.808;17.856;2023-02-28T01:48:04;101942.75;;;-2.16
48854;BMP280;34673;52.808;17.856;2023-02-28T01:50:36;101947.81;;;-2.16
48854;BMP280;34673;52.808;17.856;2023-02-28T01:53:08;101946.03;;;-2.17
48854;BMP280;34673;52.808;17.856;2023-02-28T01:55:38;101949.16;;;-2.21
48854;BMP280;34673;52.808;17.856;2023-02-28T01:58:07;101954.22;;;-2.21
48854;BMP280;34673;52.808;17.856;2023-02-28T02:00:36;101948.94;;;-2.25
48854;BMP280;34673;52.808;17.856;2023-02-28T02:03:08;101942.09;;;-2.26
48854;BMP280;34673;52.808;17.856;2023-02-28T02:05:39;101947.94;;;-2.27
48854;BMP280;34673;52.808;17.856;2023-02-28T02:08:12;101950.28;;;-2.30
48854;BMP280;34673;52.808;17.856;2023-02-28T02:11:02;101950.47;;;-2.27
48854;BMP280;34673;52.808;17.856;2023-02-28T02:22:37;101947.69;;;-2.55
48854;BMP280;34673;52.808;17.856;2023-02-28T02:25:28;101955.16;;;-2.56
48854;BMP280;34673;52.808;17.856;2023-02-28T02:36:41;101958.44;;;-2.46
48854;BMP280;34673;52.808;17.856;2023-02-28T02:41:48;101958.56;;;-2.44
48854;BMP280;34673;52.808;17.856;2023-02-28T02:44:42;101952.31;;;-2.49
48854;BMP280;34673;52.808;17.856;2023-02-28T02:47:17;101950.88;;;-2.57
48854;BMP280;34673;52.808;17.856;2023-02-28T02:49:57;101951.41;;;-2.61
48854;BMP280;34673;52.808;17.856;2023-02-28T02:52:55;101946.94;;;-2.65
48854;BMP280;34673;52.808;17.856;2023-02-28T02:55:21;101953.84;;;-2.75
48854;BMP280;34673;52.808;17.856;2023-02-28T02:57:59;101950.09;;;-2.80
48854;BMP280;34673;52.808;17.856;2023-02-28T03:00:35;101943.28;;;-2.81
48854;BMP280;34673;52.808;17.856;2023-02-28T03:03:05;101948.56;;;-2.78
48854;BMP280;34673;52.808;17.856;2023-02-28T03:05:47;101940.88;;;-2.68
48854;BMP280;34673;52.808;17.856;2023-02-28T03:08:15;101937.53;;;-2.67
48854;BMP280;34673;52.808;17.856;2023-02-28T03:10:45;101943.72;;;-2.63
48854;BMP280;34673;52.808;17.856;2023-02-28T03:24:32;101948.78;;;-2.75
48854;BMP280;34673;52.808;17.856;2023-02-28T03:27:09;101946.81;;;-2.79
48854;BMP280;34673;52.808;17.856;2023-02-28T03:29:52;101933.81;;;-2.83
48854;BMP280;34673;52.808;17.856;2023-02-28T03:32:28;101955.41;;;-2.77
48854;BMP280;34673;52.808;17.856;2023-02-28T03:37:37;101958.59;;;-2.68
48854;BMP280;34673;52.808;17.856;2023-02-28T03:40:11;101964.97;;;-2.73
48854;BMP280;34673;52.808;17.856;2023-02-28T03:42:43;101963.56;;;-2.81
48854;BMP280;34673;52.808;17.856;2023-02-28T03:45:15;101970.59;;;-2.88
48854;BMP280;34673;52.808;17.856;2023-02-28T03:50:23;101957.63;;;-2.93
48854;BMP280;34673;52.808;17.856;2023-02-28T03:53:04;101961.34;;;-2.88
48854;BMP280;34673;52.808;17.856;2023-02-28T03:55:39;101965.97;;;-2.82
48854;BMP280;34673;52.808;17.856;2023-02-28T03:58:15;101963.78;;;-2.78
48854;BMP280;34673;52.808;17.856;2023-02-28T04:00:52;101964.56;;;-2.79
48854;BMP280;34673;52.808;17.856;2023-02-28T04:03:22;101970.38;;;-2.80
48854;BMP280;34673;52.808;17.856;2023-02-28T04:05:54;101973.91;;;-2.78
48854;BMP280;34673;52.808;17.856;2023-02-28T04:08:22;101972.38;;;-2.76
48854;BMP280;34673;52.808;17.856;2023-02-28T04:10:55;101974.69;;;-2.79
48854;BMP280;34673;52.808;17.856;2023-02-28T04:13:24;101970.16;;;-2.83
48854;BMP280;34673;52.808;17.856;2023-02-28T04:15:51;101970.16;;;-2.83
48854;BMP280;34673;52.808;17.856;2023-02-28T04:18:18;101964.66;;;-2.89
48854;BMP280;34673;52.808;17.856;2023-02-28T04:20:46;101977.19;;;-2.91
48854;BMP280;34673;52.808;17.856;2023-02-28T04:23:13;101980.28;;;-2.95
48854;BMP280;34673;52.808;17.856;2023-02-28T04:25:40;101969.59;;;-3.02
48854;BMP280;34673;52.808;17.856;2023-02-28T04:28:07;101982.25;;;-3.02
48854;BMP280;34673;52.808;17.856;2023-02-28T04:30:34;101982.03;;;-3.05
48854;BMP280;34673;52.808;17.856;2023-02-28T04:33:01;101984.00;;;-3.01
48854;BMP280;34673;52.808;17.856;2023-02-28T04:35:29;101982.25;;;-3.02
48854;BMP280;34673;52.808;17.856;2023-02-28T04:37:56;101993.72;;;-2.96
48854;BMP280;34673;52.808;17.856;2023-02-28T04:40:23;101992.16;;;-2.94
48854;BMP280;34673;52.808;17.856;2023-02-28T04:42:50;102002.06;;;-2.97
48854;BMP280;34673;52.808;17.856;2023-02-28T04:45:17;101999.97;;;-3.02
48854;BMP280;34673;52.808;17.856;2023-02-28T04:47:45;101991.16;;;-3.07
48854;BMP280;34673;52.808;17.856;2023-02-28T04:50:12;101982.34;;;-3.13
48854;BMP280;34673;52.808;17.856;2023-02-28T04:52:39;101991.94;;;-3.08
48854;BMP280;34673;52.808;17.856;2023-02-28T04:55:06;101989.28;;;-3.22
48854;BMP280;34673;52.808;17.856;2023-02-28T04:57:34;102004.25;;;-3.25
48854;BMP280;34673;52.808;17.856;2023-02-28T05:00:01;102008.53;;;-3.24
48854;BMP280;34673;52.808;17.856;2023-02-28T05:02:28;102004.47;;;-3.22
48854;BMP280;34673;52.808;17.856;2023-02-28T05:04:55;102005.56;;;-3.18
48854;BMP280;34673;52.808;17.856;2023-02-28T05:07:22;101996.09;;;-3.21
48854;BMP280;34673;52.808;17.856;2023-02-28T05:09:49;102003.09;;;-3.28
48854;BMP280;34673;52.808;17.856;2023-02-28T05:12:16;102009.31;;;-3.25
48854;BMP280;34673;52.808;17.856;2023-02-28T05:14:43;102018.13;;;-3.20
48854;BMP280;34673;52.808;17.856;2023-02-28T05:17:10;102017.91;;;-3.23
48854;BMP280;34673;52.808;17.856;2023-02-28T05:19:38;102017.19;;;-3.32
48854;BMP280;34673;52.808;17.856;2023-02-28T05:22:12;102013.44;;;-3.37
48854;BMP280;34673;52.808;17.856;2023-02-28T05:24:40;102012.91;;;-3.33
48854;BMP280;34673;52.808;17.856;2023-02-28T05:27:07;102022.03;;;-3.35
48854;BMP280;34673;52.808;17.856;2023-02-28T05:29:34;102020.28;;;-3.36
48854;BMP280;34673;52.808;17.856;2023-02-28T05:32:10;102011.69;;;-3.38
48854;BMP280;34673;52.808;17.856;2023-02-28T05:34:39;102017.31;;;-3.30
48854;BMP280;34673;52.808;17.856;2023-02-28T05:37:11;102015.22;;;-3.36
48854;BMP280;34673;52.808;17.856;2023-02-28T05:39:39;102029.63;;;-3.35
48854;BMP280;34673;52.808;17.856;2023-02-28T05:42:06;102023.56;;;-3.37
48854;BMP280;34673;52.808;17.856;2023-02-28T05:44:33;102030.63;;;-3.33
48854;BMP280;34673;52.808;17.856;2023-02-28T05:47:01;102016.97;;;-3.35
48854;BMP280;34673;52.808;17.856;2023-02-28T05:49:28;102020.94;;;-3.39
48854;BMP280;34673;52.808;17.856;2023-02-28T05:51:55;102027.09;;;-3.35
48854;BMP280;34673;52.808;17.856;2023-02-28T05:54:22;102033.91;;;-3.34
48854;BMP280;34673;52.808;17.856;2023-02-28T05:56:50;102027.97;;;-3.35
48854;BMP280;34673;52.808;17.856;2023-02-28T05:59:17;102017.19;;;-3.32
48854;BMP280;34673;52.808;17.856;2023-02-28T06:02:15;102028.38;;;-3.40
48854;BMP280;34673;52.808;17.856;2023-02-28T06:04:43;102027.94;;;-3.46
48854;BMP280;34673;52.808;17.856;2023-02-28T06:07:10;102035.41;;;-3.48
48854;BMP280;34673;52.808;17.856;2023-02-28T06:09:37;102033.66;;;-3.49
48854;BMP280;34673;52.808;17.856;2023-02-28T06:12:05;102036.53;;;-3.44
48854;BMP280;34673;52.808;17.856;2023-02-28T06:14:34;102029.91;;;-3.42
48854;BMP280;34673;52.808;17.856;2023-02-28T06:17:02;102026.22;;;-3.36
48854;BMP280;34673;52.808;17.856;2023-02-28T06:19:29;102031.94;;;-3.38
48854;BMP280;34673;52.808;17.856;2023-02-28T06:21:57;102038.41;;;-3.42
48854;BMP280;34673;52.808;17.856;2023-02-28T06:24:26;102031.69;;;-3.41
48854;BMP280;34673;52.808;17.856;2023-02-28T06:26:57;102034.22;;;-3.41
48854;BMP280;34673;52.808;17.856;2023-02-28T06:29:25;102034.22;;;-3.41
48854;BMP280;34673;52.808;17.856;2023-02-28T06:31:53;102041.84;;;-3.29
48854;BMP280;34673;52.808;17.856;2023-02-28T06:34:20;102043.19;;;-3.23
48854;BMP280;34673;52.808;17.856;2023-02-28T06:36:50;102043.19;;;-3.23
48854;BMP280;34673;52.808;17.856;2023-02-28T06:39:18;102043.19;;;-3.23
48854;BMP280;34673;52.808;17.856;2023-02-28T06:41:46;102029.09;;;-3.31
48854;BMP280;34673;52.808;17.856;2023-02-28T06:44:22;102043.44;;;-3.20
48854;BMP280;34673;52.808;17.856;2023-02-28T06:46:50;102044.75;;;-3.13
48854;BMP280;34673;52.808;17.856;2023-02-28T06:49:17;102040.56;;;-3.13
48854;BMP280;34673;52.808;17.856;2023-02-28T06:51:44;102049.59;;;-3.04
48854;BMP280;34673;52.808;17.856;2023-02-28T06:54:12;102040.59;;;-3.01
48854;BMP280;34673;52.808;17.856;2023-02-28T06:56:39;102039.97;;;-2.98
48854;BMP280;34673;52.808;17.856;2023-02-28T06:59:07;102058.91;;;-2.81
48854;BMP280;34673;52.808;17.856;2023-02-28T07:01:34;102050.75;;;-2.77
48854;BMP280;34673;52.808;17.856;2023-02-28T07:04:02;102055.84;;;-2.65
48854;BMP280;34673;52.808;17.856;2023-02-28T07:06:29;102048.56;;;-2.61
48854;BMP280;34673;52.808;17.856;2023-02-28T07:08:57;102046.38;;;-2.56
48854;BMP280;34673;52.808;17.856;2023-02-28T07:11:26;102051.13;;;-2.49
48854;BMP280;34673;52.808;17.856;2023-02-28T07:13:55;102052.31;;;-2.44
48854;BMP280;34673;52.808;17.856;2023-02-28T07:16:24;102052.53;;;-2.41
48854;BMP280;34673;52.808;17.856;2023-02-28T07:18:55;102049.66;;;-2.34
48854;BMP280;34673;52.808;17.856;2023-02-28T07:21:22;102041.31;;;-2.33
48854;BMP280;34673;52.808;17.856;2023-02-28T07:23:49;102041.41;;;-2.19
48854;BMP280;34673;52.808;17.856;2023-02-28T07:26:18;102045.13;;;-2.14
48854;BMP280;34673;52.808;17.856;2023-02-28T07:28:47;102031.34;;;-2.18
48854;BMP280;34673;52.808;17.856;2023-02-28T07:31:15;102043.03;;;-2.08
48854;BMP280;34673;52.808;17.856;2023-02-28T07:33:42;102033.88;;;-2.06
48854;BMP280;34673;52.808;17.856;2023-02-28T07:36:13;102047.41;;;-1.94
48854;BMP280;34673;52.808;17.856;2023-02-28T07:38:43;102052.88;;;-1.88
48854;BMP280;34673;52.808;17.856;2023-02-28T07:41:15;102044.06;;;-1.81
48854;BMP280;34673;52.808;17.856;2023-02-28T07:43:43;102045.34;;;-1.74
48854;BMP280;34673;52.808;17.856;2023-02-28T07:46:13;102046.66;;;-1.68
48854;BMP280;34673;52.808;17.856;2023-02-28T07:48:44;102040.94;;;-1.65
48854;BMP280;34673;52.808;17.856;2023-02-28T07:51:12;102041.13;;;-1.62
48854;BMP280;34673;52.808;17.856;2023-02-28T07:53:39;102038.22;;;-1.55
48854;BMP280;34673;52.808;17.856;2023-02-28T07:56:07;102037.66;;;-1.51
48854;BMP280;34673;52.808;17.856;2023-02-28T07:58:34;102040.81;;;-1.42
48854;BMP280;34673;52.808;17.856;2023-02-28T08:01:08;102046.53;;;-1.32
48854;BMP280;34673;52.808;17.856;2023-02-28T08:03:37;102039.19;;;-1.28
48854;BMP280;34673;52.808;17.856;2023-02-28T08:06:06;102036.59;;;-1.16
48854;BMP280;34673;52.808;17.856;2023-02-28T08:08:33;102024.19;;;-1.12
48854;BMP280;34673;52.808;17.856;2023-02-28T08:11:02;102037.44;;;-0.91
48854;BMP280;34673;52.808;17.856;2023-02-28T08:13:30;102028.16;;;-0.77
48854;BMP280;34673;52.808;17.856;2023-02-28T08:15:57;102032.19;;;-0.54
48854;BMP280;34673;52.808;17.856;2023-02-28T08:18:25;102030.59;;;-0.38
48854;BMP280;34673;52.808;17.856;2023-02-28T08:20:52;102041.06;;;-0.20
48854;BMP280;34673;52.808;17.856;2023-02-28T08:23:19;102046.44;;;-0.03
48854;BMP280;34673;52.808;17.856;2023-02-28T08:25:53;102030.84;;;0.06
48854;BMP280;34673;52.808;17.856;2023-02-28T08:28:22;102050.44;;;0.35
48854;BMP280;34673;52.808;17.856;2023-02-28T08:30:52;102049.78;;;0.53
48854;BMP280;34673;52.808;17.856;2023-02-28T08:33:20;102052.44;;;0.69
48854;BMP280;34673;52.808;17.856;2023-02-28T08:35:48;102049.13;;;0.85
48854;BMP280;34673;52.808;17.856;2023-02-28T08:38:15;102054.41;;;1.03
48854;BMP280;34673;52.808;17.856;2023-02-28T08:40:42;102064.50;;;1.16
48854;BMP280;34673;52.808;17.856;2023-02-28T08:43:10;102070.41;;;1.30
48854;BMP280;34673;52.808;17.856;2023-02-28T08:45:37;102054.78;;;1.39
48854;BMP280;34673;52.808;17.856;2023-02-28T08:48:04;102073.28;;;1.51
48854;BMP280;34673;52.808;17.856;2023-02-28T08:50:31;102069.50;;;1.59
48854;BMP280;34673;52.808;17.856;2023-02-28T08:52:59;102074.34;;;1.69
48854;BMP280;34673;52.808;17.856;2023-02-28T08:55:26;102073.34;;;1.82
48854;BMP280;34673;52.808;17.856;2023-02-28T08:57:53;102046.44;;;1.72
48854;BMP280;34673;52.808;17.856;2023-02-28T09:00:22;102068.19;;;1.97
48854;BMP280;34673;52.808;17.856;2023-02-28T09:02:49;102076.69;;;2.12
48854;BMP280;34673;52.808;17.856;2023-02-28T09:05:16;102061.03;;;2.22
48854;BMP280;34673;52.808;17.856;2023-02-28T09:07:43;102065.22;;;2.37
48854;BMP280;34673;52.808;17.856;2023-02-28T09:10:10;102068.25;;;2.62
48854;BMP280;34673;52.808;17.856;2023-02-28T09:12:38;102064.56;;;2.74
48854;BMP280;34673;52.808;17.856;2023-02-28T09:15:05;102055.94;;;2.88
48854;BMP280;34673;52.808;17.856;2023-02-28T09:17:33;102060.22;;;3.05
48854;BMP280;34673;52.808;17.856;2023-02-28T09:20:00;102051.91;;;3.09
48854;BMP280;34673;52.808;17.856;2023-02-28T09:22:27;102053.34;;;3.04
48854;BMP280;34673;52.808;17.856;2023-02-28T09:24:54;102049.53;;;2.96
48854;BMP280;34673;52.808;17.856;2023-02-28T09:27:21;102053.19;;;3.01
48854;BMP280;34673;52.808;17.856;2023-02-28T09:29:49;102056.69;;;3.03
48854;BMP280;34673;52.808;17.856;2023-02-28T09:32:16;102047.75;;;2.95
48854;BMP280;34673;52.808;17.856;2023-02-28T09:34:44;102046.09;;;2.79
48854;BMP280;34673;52.808;17.856;2023-02-28T09:37:12;102044.47;;;2.80
48854;BMP280;34673;52.808;17.856;2023-02-28T09:39:39;102045.19;;;2.77
48854;BMP280;34673;52.808;17.856;2023-02-28T09:42:17;102046.94;;;2.62
48854;BMP280;34673;52.808;17.856;2023-02-28T09:44:46;102047.50;;;2.56
48854;BMP280;34673;52.808;17.856;2023-02-28T09:47:23;102042.09;;;2.50
48854;BMP280;34673;52.808;17.856;2023-02-28T09:49:54;102054.19;;;2.54
48854;BMP280;34673;52.808;17.856;2023-02-28T09:52:29;102049.59;;;2.63
48854;BMP280;34673;52.808;17.856;2023-02-28T09:55:20;102039.38;;;2.63
48854;BMP280;34673;52.808;17.856;2023-02-28T09:57:50;102041.41;;;2.71
48854;BMP280;34673;52.808;17.856;2023-02-28T10:00:27;102044.28;;;2.77
48854;BMP280;34673;52.808;17.856;2023-02-28T10:03:31;102045.09;;;2.76
48854;BMP280;34673;52.808;17.856;2023-02-28T10:06:14;102043.66;;;2.81
48854;BMP280;34673;52.808;17.856;2023-02-28T10:11:37;102042.50;;;2.92
48854;BMP280;34673;52.808;17.856;2023-02-28T10:14:23;102051.28;;;2.97
48854;BMP280;34673;52.808;17.856;2023-02-28T10:17:04;102046.47;;;3.03
48854;BMP280;34673;52.808;17.856;2023-02-28T10:24:50;102050.28;;;3.11
48854;BMP280;34673;52.808;17.856;2023-02-28T10:27:26;102048.97;;;3.20
48854;BMP280;34673;52.808;17.856;2023-02-28T10:29:58;102044.25;;;3.27
48854;BMP280;34673;52.808;17.856;2023-02-28T10:32:32;102038.91;;;3.23
48854;BMP280;34673;52.808;17.856;2023-02-28T10:35:16;102034.81;;;3.26
48854;BMP280;34673;52.808;17.856;2023-02-28T10:37:46;102030.50;;;3.25
48854;BMP280;34673;52.808;17.856;2023-02-28T10:45:53;102022.56;;;3.37
48854;BMP280;34673;52.808;17.856;2023-02-28T10:56:06;102006.91;;;3.67
48854;BMP280;34673;52.808;17.856;2023-02-28T11:03:59;102015.81;;;3.75
48854;BMP280;34673;52.808;17.856;2023-02-28T11:06:31;102002.28;;;3.77
48854;BMP280;34673;52.808;17.856;2023-02-28T11:09:04;102004.09;;;3.80
48854;BMP280;34673;52.808;17.856;2023-02-28T11:11:43;101997.22;;;3.79
48854;BMP280;34673;52.808;17.856;2023-02-28T11:14:22;101995.59;;;3.81
48854;BMP280;34673;52.808;17.856;2023-02-28T11:16:51;101996.63;;;3.85
48854;BMP280;34673;52.808;17.856;2023-02-28T11:19:23;101994.28;;;3.89
48854;BMP280;34673;52.808;17.856;2023-02-28T11:21:59;101994.28;;;3.89
48854;BMP280;34673;52.808;17.856;2023-02-28T11:24:30;101989.28;;;3.92
48854;BMP280;34673;52.808;17.856;2023-02-28T11:26:58;101990.47;;;3.99
48854;BMP280;34673;52.808;17.856;2023-02-28T11:29:28;101982.84;;;4.00
48854;BMP280;34673;52.808;17.856;2023-02-28T11:32:12;101988.22;;;4.07
48854;BMP280;34673;52.808;17.856;2023-02-28T11:34:41;101981.63;;;4.12
48854;BMP280;34673;52.808;17.856;2023-02-28T11:37:14;101985.22;;;4.15
48854;BMP280;34673;52.808;17.856;2023-02-28T11:39:43;101984.44;;;4.18
48854;BMP280;34673;52.808;17.856;2023-02-28T11:50:39;101989.78;;;4.22
48854;BMP280;34673;52.808;17.856;2023-02-28T11:58:51;101983.53;;;4.16
48854;BMP280;34673;52.808;17.856;2023-02-28T12:01:36;101981.00;;;4.17
48854;BMP280;34673;52.808;17.856;2023-02-28T12:07:02;101956.13;;;4.15
48854;BMP280;34673;52.808;17.856;2023-02-28T12:09:47;101957.31;;;4.21
48854;BMP280;34673;52.808;17.856;2023-02-28T12:12:50;101956.56;;;4.24
48854;BMP280;34673;52.808;17.856;2023-02-28T12:18:48;101960.19;;;4.29
48854;BMP280;34673;52.808;17.856;2023-02-28T12:21:40;101955.09;;;4.29
48854;BMP280;34673;52.808;17.856;2023-02-28T12:24:26;101955.81;;;4.27
48854;BMP280;34673;52.808;17.856;2023-02-28T12:27:00;101953.19;;;4.25
48854;BMP280;34673;52.808;17.856;2023-02-28T12:29:58;101958.25;;;4.24
48854;BMP280;34673;52.808;17.856;2023-02-28T12:32:30;101953.19;;;4.25
48854;BMP280;34673;52.808;17.856;2023-02-28T12:35:04;101950.69;;;4.27
48854;BMP280;34673;52.808;17.856;2023-02-28T12:37:43;101949.00;;;4.27
48854;BMP280;34673;52.808;17.856;2023-02-28T12:40:17;101947.28;;;4.26
48854;BMP280;34673;52.808;17.856;2023-02-28T12:42:57;101951.31;;;4.21
48854;BMP280;34673;52.808;17.856;2023-02-28T12:45:53;101945.91;;;4.15
48854;BMP280;34673;52.808;17.856;2023-02-28T12:48:39;101948.41;;;4.13
48854;BMP280;34673;52.808;17.856;2023-02-28T12:51:07;101947.53;;;4.13
48854;BMP280;34673;52.808;17.856;2023-02-28T12:53:43;101944.16;;;4.14
48854;BMP280;34673;52.808;17.856;2023-02-28T12:56:21;101937.13;;;4.10
48854;BMP280;34673;52.808;17.856;2023-02-28T12:58:58;101941.59;;;4.14
48854;BMP280;34673;52.808;17.856;2023-02-28T13:09:56;101922.47;;;4.06
48854;BMP280;34673;52.808;17.856;2023-02-28T13:12:25;101925.28;;;4.12
48854;BMP280;34673;52.808;17.856;2023-02-28T13:17:31;101934.91;;;4.17
48854;BMP280;34673;52.808;17.856;2023-02-28T13:19:59;101934.03;;;4.17
48854;BMP280;34673;52.808;17.856;2023-02-28T13:22:44;101922.81;;;4.13
48854;BMP280;34673;52.808;17.856;2023-02-28T13:28:02;101908.19;;;4.11
48854;BMP280;34673;52.808;17.856;2023-02-28T13:33:35;101909.91;;;4.12
48854;BMP280;34673;52.808;17.856;2023-02-28T13:36:09;101902.94;;;4.08
48854;BMP280;34673;52.808;17.856;2023-02-28T13:38:45;101901.03;;;4.04
48854;BMP280;34673;52.808;17.856;2023-02-28T13:44:16;101898.53;;;4.05
48854;BMP280;34673;52.808;17.856;2023-02-28T13:52:02;101890.00;;;4.05
48854;BMP280;34673;52.808;17.856;2023-02-28T13:55:19;101892.41;;;4.02
48854;BMP280;34673;52.808;17.856;2023-02-28T14:06:26;101872.34;;;3.91
48854;BMP280;34673;52.808;17.856;2023-02-28T14:11:47;101865.91;;;3.80
48854;BMP280;34673;52.808;17.856;2023-02-28T14:17:05;101864.13;;;3.79
48854;BMP280;34673;52.808;17.856;2023-02-28T14:19:35;101862.25;;;3.75
48854;BMP280;34673;52.808;17.856;2023-02-28T14:22:32;101863.88;;;3.73
48854;BMP280;34673;52.808;17.856;2023-02-28T14:25:22;101857.00;;;3.72
48854;BMP280;34673;52.808;17.856;2023-02-28T14:28:12;101851.72;;;3.69
48854;BMP280;34673;52.808;17.856;2023-02-28T14:34:04;101850.13;;;3.71
48854;BMP280;34673;52.808;17.856;2023-02-28T14:36:41;101835.97;;;3.60
48854;BMP280;34673;52.808;17.856;2023-02-28T14:39:15;101848.13;;;3.64
48854;BMP280;34673;52.808;17.856;2023-02-28T14:41:44;101846.22;;;3.60
48854;BMP280;34673;52.808;17.856;2023-02-28T14:44:21;101847.81;;;3.58
48854;BMP280;34673;52.808;17.856;2023-02-28T14:46:54;101845.94;;;3.53
48854;BMP280;34673;52.808;17.856;2023-02-28T14:49:27;101845.94;;;3.53
48854;BMP280;34673;52.808;17.856;2023-02-28T14:52:23;101848.38;;;3.50
48854;BMP280;34673;52.808;17.856;2023-02-28T14:54:57;101844.03;;;3.49
48854;BMP280;34673;52.808;17.856;2023-02-28T14:57:32;101845.53;;;3.44
48854;BMP280;34673;52.808;17.856;2023-02-28T15:02:49;101857.09;;;3.36
48854;BMP280;34673;52.808;17.856;2023-02-28T15:05:29;101850.09;;;3.32
48854;BMP280;34673;52.808;17.856;2023-02-28T15:08:11;101844.97;;;3.32
48854;BMP280;34673;52.808;17.856;2023-02-28T15:11:33;101843.91;;;3.27
48854;BMP280;34673;52.808;17.856;2023-02-28T15:13:54;101842.94;;;3.25
48854;BMP280;34673;52.808;17.856;2023-02-28T15:16:29;101839.38;;;3.21
48854;BMP280;34673;52.808;17.856;2023-02-28T15:19:11;101842.53;;;3.16
48854;BMP280;34673;52.808;17.856;2023-02-28T15:21:43;101844.13;;;3.14
48854;BMP280;34673;52.808;17.856;2023-02-28T15:24:20;101850.84;;;3.11
48854;BMP280;34673;52.808;17.856;2023-02-28T15:26:56;101847.38;;;3.09
48854;BMP280;34673;52.808;17.856;2023-02-28T15:29:26;101849.72;;;3.05
48854;BMP280;34673;52.808;17.856;2023-02-28T15:32:03;101856.56;;;3.06
48854;BMP280;34673;52.808;17.856;2023-02-28T15:34:38;101853.81;;;3.01
48854;BMP280;34673;52.808;17.856;2023-02-28T15:40:38;101854.31;;;2.94
48854;BMP280;34673;52.808;17.856;2023-02-28T15:43:19;101850.53;;;2.86
48854;BMP280;34673;52.808;17.856;2023-02-28T15:45:58;101858.97;;;2.85
48854;BMP280;34673;52.808;17.856;2023-02-28T15:48:36;101852.63;;;2.77
48854;BMP280;34673;52.808;17.856;2023-02-28T15:51:19;101865.34;;;2.75
48854;BMP280;34673;52.808;17.856;2023-02-28T15:54:00;101863.44;;;2.71
48854;BMP280;34673;52.808;17.856;2023-02-28T15:56:35;101862.13;;;2.61
48854;BMP280;34673;52.808;17.856;2023-02-28T15:59:06;101852.41;;;2.54
48854;BMP280;34673;52.808;17.856;2023-02-28T16:01:37;101850.50;;;2.50
48854;BMP280;34673;52.808;17.856;2023-02-28T16:04:12;101844.31;;;2.45
48854;BMP280;34673;52.808;17.856;2023-02-28T16:09:12;101853.75;;;2.30
48854;BMP280;34673;52.808;17.856;2023-02-28T16:11:46;101849.78;;;2.18
48854;BMP280;34673;52.808;17.856;2023-02-28T16:14:22;101835.38;;;2.03
48854;BMP280;34673;52.808;17.856;2023-02-28T16:16:52;101850.31;;;1.95
48854;BMP280;34673;52.808;17.856;2023-02-28T16:19:20;101841.94;;;1.81
48854;BMP280;34673;52.808;17.856;2023-02-28T16:21:48;101836.78;;;1.63
48854;BMP280;34673;52.808;17.856;2023-02-28T16:24:15;101846.09;;;1.63
48854;BMP280;34673;52.808;17.856;2023-02-28T16:26:46;101849.44;;;1.62
48854;BMP280;34673;52.808;17.856;2023-02-28T16:29:22;101844.91;;;1.56
48854;BMP280;34673;52.808;17.856;2023-02-28T16:31:50;101841.06;;;1.48